Gilcrest, Colorado
Current Conditions -  °F | °C
As of 10:55 PM on Monday 26 Jan 2015 (Local Time) from KGXY Reporting Station
Clear Clear  
Wind Chill: 26°   Ceiling: Unl
Heat Index: 32°   Visibility: 10mi
Dew Point: 21°   Wind: 7mph
Humidity: 64%   Direction: 290°WNW
Pressure: 30.17"   Gusts: NA
Location:  40.28°N, 104.78°W
Report Text: KGXY 270555Z AUTO 29006KT 10SM CLR 00/M06 A3017 RMK AO1 10170 21020 54000
Loading
Personal Weather Stations






























Interactive Weather Map New forecast layout! Learn more

10-Day Weather Forecast

Advertisements
Track Severe Weather on mobile